map of TDD home
TDD - Airport
Location
City:  Trinidad, Cercado, El Beni, Bolivia
Name:Teniente Jorge Henrich Arauz
ICAO:SLTR
IATA:TDD

Details
Type:Airport (Aerodrome, Airfield)
Use:Public/Civil, International (customs port of entry)
Latitude:1449'07"S (-14.818738)
Longitude:6455'05"W (-64.918018)
Datum:WGS 1984
Elevation:509 ft (155 m)
Variation:11.28W (WMM2015 magnetic declination)
-0.19 annual change
Runways:1
Longest:7874 × 98 ft (2400 × 30 m), paved

Time
Time Zone:UTC-4
Local Time:

Weather
METAR:SLTR 112100Z 35005KT 9999 FEW017 SCT200 33/25 Q1009
TAF:SLTR 111650Z 1118/1218 34010KT 9999 FEW017 TX35/1120Z TN23/1210Z
TEMPO 1119/1122 FEW020 FEW023CB SCT080
BECMG 1123/1202 00000KT

Related Locations
Nearby:
Farthest:ZJYX: 12212 mi / 19654 km
Yongxing Island [Yongxing Island Airport], Xisha Islands (Woody Island, Paracel Islands), 46, CN

Find:

   beyond  
but within

Other Information
Maps:
NOTAMs:
Links:
Sources:

  
  • flag of Bolivia
  • flag of El Beni
  

Sectional Chart

Flight Planning
at skyvector.com

Satellite Image

Google Maps Satellite view

 

Copyright © 2004-2018 Karl L. Swartz. All rights reserved.
The Great Circle Mapper name and logo are trademarks of the Great Circle Mapper.
All other trademarks mentioned herein belong to their respective owners.
Please see credits for attibutions and further copyright information.

  Follow gcmap on Facebook Follow gcmap on Twitter Follow gcmap on Google+ GCmap on LinkedIn

hCard Microformat

Geo Microformat